createdAt,value
2016-10-13T00:00:53.720Z,0
2016-10-13T00:01:53.757Z,0
2016-10-13T00:02:54.374Z,0
2016-10-13T00:03:53.896Z,0
2016-10-13T00:04:54.508Z,0
2016-10-13T00:05:54.549Z,0
2016-10-13T00:06:54.585Z,0
2016-10-13T00:07:54.084Z,0
2016-10-13T00:08:54.318Z,0
2016-10-13T00:09:54.191Z,0
2016-10-13T00:10:54.250Z,0
2016-10-13T00:11:54.332Z,0
2016-10-13T00:12:54.359Z,0
2016-10-13T00:13:54.578Z,0
2016-10-13T00:14:54.470Z,0
2016-10-13T00:15:54.539Z,0
2016-10-13T00:16:54.607Z,0
2016-10-13T00:17:54.667Z,0
2016-10-13T00:18:54.778Z,0
2016-10-13T00:19:54.731Z,0
2016-10-13T00:20:54.812Z,0
2016-10-13T00:21:54.834Z,0
2016-10-13T00:22:54.906Z,0
2016-10-13T00:23:55.053Z,0
2016-10-13T00:24:54.990Z,0
2016-10-13T00:25:55.623Z,0
2016-10-13T00:26:55.090Z,0
2016-10-13T00:27:55.172Z,0
2016-10-13T00:28:55.336Z,0
2016-10-13T00:29:55.292Z,0
2016-10-13T00:30:55.820Z,0
2016-10-13T00:31:55.377Z,0
2016-10-13T00:32:55.423Z,0
2016-10-13T00:33:56.111Z,0
2016-10-13T00:34:55.547Z,0
2016-10-13T00:35:55.622Z,0
2016-10-13T00:36:55.633Z,0
2016-10-13T00:37:55.728Z,0
2016-10-13T00:38:55.802Z,0
2016-10-13T00:39:55.795Z,0
2016-10-13T00:40:55.811Z,0
2016-10-13T00:41:55.891Z,0
2016-10-13T00:42:55.987Z,0
2016-10-13T00:43:56.017Z,0
2016-10-13T00:44:56.162Z,0
2016-10-13T00:45:56.142Z,0
2016-10-13T00:46:56.179Z,0
2016-10-13T00:47:56.280Z,0
2016-10-13T00:48:56.311Z,0
2016-10-13T00:49:56.447Z,0
2016-10-13T00:50:56.388Z,0
2016-10-13T00:51:56.430Z,0
2016-10-13T00:52:57.038Z,0
2016-10-13T00:53:56.578Z,0
2016-10-13T00:54:56.672Z,0
2016-10-13T00:55:57.253Z,0
2016-10-13T00:56:56.711Z,0
2016-10-13T00:57:56.752Z,0
2016-10-13T00:58:56.838Z,0
2016-10-13T00:59:56.952Z,0
2016-10-13T01:00:56.945Z,0
2016-10-13T01:01:56.991Z,0
2016-10-13T01:02:57.072Z,0
2016-10-13T01:03:57.082Z,0
2016-10-13T01:04:57.128Z,0
2016-10-13T01:05:57.187Z,0
2016-10-13T01:06:57.216Z,0
2016-10-13T01:07:57.286Z,0
2016-10-13T01:08:57.323Z,0
2016-10-13T01:09:57.424Z,0
2016-10-13T01:10:57.571Z,0
2016-10-13T01:11:57.530Z,0
2016-10-13T01:12:57.542Z,0
2016-10-13T01:13:57.621Z,0
2016-10-13T01:14:57.640Z,0
2016-10-13T01:15:57.856Z,0
2016-10-13T01:16:57.761Z,0
2016-10-13T01:17:57.806Z,0
2016-10-13T01:18:57.846Z,0
2016-10-13T01:19:57.949Z,0
2016-10-13T01:20:58.056Z,0
2016-10-13T01:21:58.017Z,0
2016-10-13T01:22:58.103Z,0
2016-10-13T01:23:58.163Z,0
2016-10-13T01:24:58.238Z,0
2016-10-13T01:25:58.388Z,0
2016-10-13T01:26:58.353Z,0
2016-10-13T01:27:58.924Z,0
2016-10-13T01:28:58.370Z,0
2016-10-13T01:29:58.449Z,0
2016-10-13T01:30:58.684Z,0
2016-10-13T01:31:58.589Z,0
2016-10-13T01:32:58.616Z,0
2016-10-13T01:33:58.654Z,0
2016-10-13T01:34:58.737Z,0
2016-10-13T01:35:58.774Z,0
2016-10-13T01:36:58.834Z,0
2016-10-13T01:37:58.872Z,0
2016-10-13T01:38:58.942Z,0
2016-10-13T01:39:59.024Z,0
2016-10-13T01:40:59.045Z,0
2016-10-13T01:41:59.187Z,0
2016-10-13T01:42:59.164Z,0
2016-10-13T01:43:59.198Z,0
2016-10-13T01:44:59.244Z,0
2016-10-13T01:45:59.310Z,0
2016-10-13T01:46:59.430Z,0
2016-10-13T01:47:59.418Z,0
2016-10-13T01:48:59.449Z,0
2016-10-13T01:49:59.541Z,0
2016-10-13T01:50:59.587Z,0
2016-10-13T01:51:59.748Z,0
2016-10-13T01:52:59.699Z,0
2016-10-13T01:53:59.727Z,0
2016-10-13T01:54:59.765Z,0
2016-10-13T01:55:59.871Z,0
2016-10-13T01:56:59.999Z,0
2016-10-13T01:58:00.010Z,0
2016-10-13T01:59:00.544Z,0
2016-10-13T02:00:00.056Z,0
2016-10-13T02:01:00.092Z,0
2016-10-13T02:02:00.259Z,0
2016-10-13T02:03:00.204Z,0
2016-10-13T02:04:00.287Z,0
2016-10-13T02:05:00.357Z,0
2016-10-13T02:06:00.375Z,0
2016-10-13T02:07:00.421Z,0
2016-10-13T02:08:00.498Z,0
2016-10-13T02:09:00.514Z,0
2016-10-13T02:10:00.595Z,0
2016-10-13T02:11:00.627Z,0
2016-10-13T02:12:01.279Z,0
2016-10-13T02:13:00.872Z,0
2016-10-13T02:14:00.806Z,0
2016-10-13T02:15:00.847Z,0
2016-10-13T02:16:00.938Z,0
2016-10-13T02:17:00.959Z,0
2016-10-13T02:18:01.133Z,0
2016-10-13T02:19:01.049Z,0
2016-10-13T02:20:01.150Z,0
2016-10-13T02:21:01.192Z,0
2016-10-13T02:22:01.261Z,0
2016-10-13T02:23:01.374Z,0
2016-10-13T02:24:01.360Z,0
2016-10-13T02:25:01.372Z,0
2016-10-13T02:26:01.385Z,0
2016-10-13T02:27:01.469Z,0
2016-10-13T02:28:01.668Z,0
2016-10-13T02:29:01.575Z,0
2016-10-13T02:30:01.638Z,0
2016-10-13T02:31:01.704Z,0
2016-10-13T02:32:01.763Z,0
2016-10-13T02:33:01.921Z,0
2016-10-13T02:34:01.859Z,0
2016-10-13T02:35:01.896Z,0
2016-10-13T02:36:01.953Z,0
2016-10-13T02:37:02.559Z,0
2016-10-13T02:38:02.166Z,0
2016-10-13T02:39:02.114Z,0
2016-10-13T02:40:02.189Z,0
2016-10-13T02:41:02.241Z,0
2016-10-13T02:42:02.313Z,0
2016-10-13T02:43:03.006Z,0
2016-10-13T02:44:02.396Z,0
2016-10-13T02:45:02.450Z,0
2016-10-13T02:46:02.498Z,0
2016-10-13T02:47:02.560Z,0
2016-10-13T02:48:02.587Z,0
2016-10-13T02:49:02.661Z,0
2016-10-13T02:50:02.708Z,0
2016-10-13T02:51:02.742Z,0
2016-10-13T02:52:02.815Z,0
2016-10-13T02:53:02.862Z,0
2016-10-13T02:54:03.027Z,0
2016-10-13T02:55:02.938Z,0
2016-10-13T02:56:02.990Z,0
2016-10-13T02:57:03.095Z,0
2016-10-13T02:58:03.648Z,0
2016-10-13T02:59:03.273Z,0
2016-10-13T03:00:03.210Z,0
2016-10-13T03:01:03.806Z,0
2016-10-13T03:02:03.332Z,0
2016-10-13T03:03:03.431Z,0
2016-10-13T03:04:03.547Z,0
2016-10-13T03:05:03.493Z,0
2016-10-13T03:06:03.596Z,0
2016-10-13T03:07:03.586Z,0
2016-10-13T03:08:03.637Z,0
2016-10-13T03:09:03.812Z,0
2016-10-13T03:10:03.802Z,0
2016-10-13T03:11:03.845Z,0
2016-10-13T03:12:03.846Z,0
2016-10-13T03:13:03.897Z,0
2016-10-13T03:14:04.069Z,0
2016-10-13T03:15:04.067Z,0
2016-10-13T03:16:04.077Z,0
2016-10-13T03:17:04.149Z,0
2016-10-13T03:18:04.161Z,0
2016-10-13T03:19:04.353Z,0
2016-10-13T03:20:04.282Z,0
2016-10-13T03:21:04.318Z,0
2016-10-13T03:22:04.393Z,0
2016-10-13T03:23:04.451Z,0
2016-10-13T03:24:04.526Z,0
2016-10-13T03:25:04.550Z,0
2016-10-13T03:26:04.625Z,0
2016-10-13T03:27:04.649Z,0
2016-10-13T03:28:04.767Z,0
2016-10-13T03:29:04.768Z,0
2016-10-13T03:30:04.921Z,0
2016-10-13T03:31:04.904Z,0
2016-10-13T03:32:04.910Z,0
2016-10-13T03:33:05.023Z,0
2016-10-13T03:34:05.036Z,0
2016-10-13T03:35:05.198Z,0
2016-10-13T03:36:05.163Z,0
2016-10-13T03:37:05.154Z,0
2016-10-13T03:38:05.269Z,0
2016-10-13T03:39:05.287Z,0
2016-10-13T03:40:05.948Z,0
2016-10-13T03:41:05.423Z,0
2016-10-13T03:42:05.440Z,0
2016-10-13T03:43:06.078Z,0
2016-10-13T03:44:06.106Z,0
2016-10-13T03:45:05.720Z,0
2016-10-13T03:46:05.706Z,0
2016-10-13T03:47:05.708Z,0
2016-10-13T03:48:05.791Z,0
2016-10-13T03:49:06.341Z,0
2016-10-13T03:50:05.915Z,0
2016-10-13T03:51:05.941Z,0
2016-10-13T03:52:05.979Z,0
2016-10-13T03:53:06.561Z,0
2016-10-13T03:54:06.085Z,0
2016-10-13T03:55:06.137Z,0
2016-10-13T03:56:06.310Z,0
2016-10-13T03:57:06.273Z,0
2016-10-13T03:58:06.313Z,0
2016-10-13T03:59:06.402Z,0
2016-10-13T04:00:06.396Z,0
2016-10-13T04:01:07.070Z,0
2016-10-13T04:02:06.465Z,0
2016-10-13T04:03:06.608Z,0
2016-10-13T04:04:06.627Z,0
2016-10-13T04:05:06.697Z,0
2016-10-13T04:06:06.804Z,0
2016-10-13T04:07:06.758Z,0
2016-10-13T04:08:06.834Z,0
2016-10-13T04:09:06.872Z,0
2016-10-13T04:10:06.910Z,0
2016-10-13T04:11:07.083Z,0
2016-10-13T04:12:07.060Z,0
2016-10-13T04:13:07.611Z,0
2016-10-13T04:14:07.173Z,0
2016-10-13T04:15:07.212Z,0
2016-10-13T04:16:07.297Z,0
2016-10-13T04:17:07.319Z,0
2016-10-13T04:18:07.373Z,0
2016-10-13T04:19:07.400Z,0
2016-10-13T04:20:07.501Z,0
2016-10-13T04:21:07.545Z,0
2016-10-13T04:22:07.652Z,0
2016-10-13T04:23:07.611Z,0
2016-10-13T04:24:07.710Z,0
2016-10-13T04:25:07.730Z,0
2016-10-13T04:26:07.820Z,0
2016-10-13T04:27:07.908Z,0
2016-10-13T04:28:07.868Z,0
2016-10-13T04:29:07.953Z,0
2016-10-13T04:30:08.520Z,0
2016-10-13T04:31:08.064Z,0
2016-10-13T04:32:08.224Z,0
2016-10-13T04:33:08.680Z,0
2016-10-13T04:34:08.218Z,0
2016-10-13T04:35:08.247Z,0
2016-10-13T04:36:08.825Z,0
2016-10-13T04:37:08.474Z,0
2016-10-13T04:38:08.420Z,0
2016-10-13T04:39:08.471Z,0
2016-10-13T04:40:08.519Z,0
2016-10-13T04:41:09.124Z,0
2016-10-13T04:42:08.709Z,0
2016-10-13T04:43:08.708Z,0
2016-10-13T04:44:08.720Z,0
2016-10-13T04:45:09.363Z,0
2016-10-13T04:46:08.795Z,0
2016-10-13T04:47:08.936Z,0
2016-10-13T04:48:08.925Z,0
2016-10-13T04:49:09.007Z,0
2016-10-13T04:50:09.563Z,0
2016-10-13T04:51:09.084Z,0
2016-10-13T04:52:09.124Z,0
2016-10-13T04:53:09.178Z,0
2016-10-13T04:54:09.790Z,0
2016-10-13T04:55:09.304Z,0
2016-10-13T04:56:09.380Z,0
2016-10-13T04:57:09.469Z,0
2016-10-13T04:58:09.577Z,0
2016-10-13T04:59:09.514Z,0
2016-10-13T05:00:09.576Z,0
2016-10-13T05:01:10.192Z,0
2016-10-13T05:02:10.259Z,0
2016-10-13T05:03:09.840Z,0
2016-10-13T05:04:09.757Z,0
2016-10-13T05:05:09.835Z,0
2016-10-13T05:06:09.903Z,0
2016-10-13T05:07:09.968Z,0
2016-10-13T05:08:10.108Z,0
2016-10-13T05:09:10.075Z,0
2016-10-13T05:10:10.124Z,0
2016-10-13T05:11:10.140Z,0
2016-10-13T05:12:10.189Z,0
2016-10-13T05:13:10.354Z,0
2016-10-13T05:14:10.340Z,0
2016-10-13T05:15:10.381Z,0
2016-10-13T05:16:10.410Z,0
2016-10-13T05:17:10.457Z,0
2016-10-13T05:18:10.664Z,0
2016-10-13T05:19:10.578Z,0
2016-10-13T05:20:10.626Z,0
2016-10-13T05:21:11.221Z,0
2016-10-13T05:22:10.727Z,0
2016-10-13T05:23:10.807Z,0
2016-10-13T05:24:10.828Z,0
2016-10-13T05:25:10.909Z,0
2016-10-13T05:26:10.975Z,0
2016-10-13T05:27:11.001Z,0
2016-10-13T05:28:11.044Z,0
2016-10-13T05:29:11.217Z,0
2016-10-13T05:30:11.156Z,0
2016-10-13T05:31:11.193Z,0
2016-10-13T05:32:11.309Z,0
2016-10-13T05:33:11.297Z,0
2016-10-13T05:34:11.483Z,0
2016-10-13T05:35:11.443Z,0
2016-10-13T05:36:11.504Z,0
2016-10-13T05:37:11.523Z,0
2016-10-13T05:38:11.583Z,0
2016-10-13T05:39:11.717Z,0
2016-10-13T05:40:11.667Z,0
2016-10-13T05:41:12.305Z,0
2016-10-13T05:42:11.804Z,0
2016-10-13T05:43:11.846Z,0
2016-10-13T05:44:11.988Z,0
2016-10-13T05:45:11.937Z,0
2016-10-13T05:46:11.998Z,0
2016-10-13T05:47:12.042Z,0
2016-10-13T05:48:12.123Z,0
2016-10-13T05:49:12.281Z,0
2016-10-13T05:50:13.308Z,0
2016-10-13T05:51:12.299Z,0
2016-10-13T05:52:12.347Z,0
2016-10-13T05:53:12.372Z,0
2016-10-13T05:54:12.414Z,0
2016-10-13T05:55:12.493Z,0
2016-10-13T05:56:12.551Z,0
2016-10-13T05:57:12.586Z,0
2016-10-13T05:58:12.650Z,0
2016-10-13T05:59:12.691Z,0
2016-10-13T06:00:12.857Z,0
2016-10-13T06:01:12.788Z,0
2016-10-13T06:02:12.803Z,0
2016-10-13T06:03:12.897Z,0
2016-10-13T06:04:12.942Z,0
2016-10-13T06:05:13.087Z,0
2016-10-13T06:06:13.070Z,0
2016-10-13T06:07:13.092Z,0
2016-10-13T06:08:13.155Z,0
2016-10-13T06:09:13.193Z,0
2016-10-13T06:10:13.347Z,0
2016-10-13T06:11:13.370Z,0
2016-10-13T06:12:13.413Z,0
2016-10-13T06:13:13.408Z,0
2016-10-13T06:14:13.487Z,0
2016-10-13T06:15:14.165Z,0
2016-10-13T06:16:13.591Z,0
2016-10-13T06:17:13.685Z,0
2016-10-13T06:18:13.711Z,0
2016-10-13T06:19:13.738Z,0
2016-10-13T06:20:13.908Z,0
2016-10-13T06:21:13.827Z,0
2016-10-13T06:22:13.889Z,0
2016-10-13T06:23:13.940Z,0
2016-10-13T06:24:14.011Z,0
2016-10-13T06:25:14.047Z,0
2016-10-13T06:26:14.100Z,0
2016-10-13T06:27:14.171Z,0
2016-10-13T06:28:14.235Z,0
2016-10-13T06:29:14.262Z,0
2016-10-13T06:30:14.289Z,0
2016-10-13T06:31:14.383Z,0
2016-10-13T06:32:14.507Z,0
2016-10-13T06:33:15.027Z,0
2016-10-13T06:34:14.511Z,0
2016-10-13T06:35:14.589Z,0
2016-10-13T06:36:14.736Z,0
2016-10-13T06:37:14.685Z,0
2016-10-13T06:38:14.764Z,0
2016-10-13T06:39:14.814Z,0
2016-10-13T06:40:14.831Z,0
2016-10-13T06:41:15.010Z,0
2016-10-13T06:42:14.924Z,0
2016-10-13T06:43:14.998Z,0
2016-10-13T06:44:15.554Z,0
2016-10-13T06:45:15.096Z,0
2016-10-13T06:46:15.282Z,0
2016-10-13T06:47:15.188Z,0
2016-10-13T06:48:15.238Z,0
2016-10-13T06:49:15.305Z,0
2016-10-13T06:50:15.365Z,0
2016-10-13T06:51:15.528Z,0
2016-10-13T06:52:15.459Z,0
2016-10-13T06:53:15.545Z,0
2016-10-13T06:54:15.607Z,0
2016-10-13T06:55:15.636Z,0
2016-10-13T06:56:15.702Z,0
2016-10-13T06:57:15.775Z,0
2016-10-13T06:58:15.795Z,0
2016-10-13T06:59:15.896Z,0
2016-10-13T07:00:15.855Z,0
2016-10-13T07:01:15.916Z,0
2016-10-13T07:02:16.614Z,0
2016-10-13T07:03:16.081Z,0
2016-10-13T07:04:16.137Z,0
2016-10-13T07:05:16.183Z,0
2016-10-13T07:06:16.222Z,0
2016-10-13T07:07:16.358Z,0
2016-10-13T07:08:16.330Z,0
2016-10-13T07:09:16.382Z,0
2016-10-13T07:10:16.427Z,0
2016-10-13T07:11:16.498Z,0
2016-10-13T07:12:16.603Z,0
2016-10-13T07:13:16.611Z,0
2016-10-13T07:14:16.637Z,0
2016-10-13T07:15:16.716Z,0
2016-10-13T07:16:16.724Z,0
2016-10-13T07:17:16.901Z,0
2016-10-13T07:18:16.883Z,0
2016-10-13T07:19:16.915Z,0
2016-10-13T07:20:16.948Z,0
2016-10-13T07:21:17.012Z,0
2016-10-13T07:22:17.140Z,0
2016-10-13T07:23:17.149Z,0
2016-10-13T07:24:17.178Z,0
2016-10-13T07:25:17.221Z,0
2016-10-13T07:26:17.264Z,0
2016-10-13T07:27:17.337Z,0
2016-10-13T07:28:17.391Z,0
2016-10-13T07:29:17.438Z,0
2016-10-13T07:30:17.512Z,0
2016-10-13T07:31:17.500Z,0
2016-10-13T07:32:17.623Z,0
2016-10-13T07:33:17.781Z,0
2016-10-13T07:34:17.668Z,0
2016-10-13T07:35:17.738Z,0
2016-10-13T07:36:17.840Z,0
2016-10-13T07:37:17.855Z,0
2016-10-13T07:38:17.976Z,0
2016-10-13T07:39:18.455Z,0
2016-10-13T07:40:18.013Z,0
2016-10-13T07:41:18.617Z,0
2016-10-13T07:42:18.129Z,0
2016-10-13T07:43:18.268Z,0
2016-10-13T07:44:18.226Z,0
2016-10-13T07:45:18.279Z,0
2016-10-13T07:46:18.286Z,0
2016-10-13T07:47:18.345Z,0
2016-10-13T07:48:18.538Z,0
2016-10-13T07:49:18.518Z,0
2016-10-13T07:50:18.528Z,0
2016-10-13T07:51:18.579Z,0
2016-10-13T07:52:18.635Z,0
2016-10-13T07:53:18.651Z,0
2016-10-13T07:54:18.763Z,0
2016-10-13T07:55:18.828Z,0
2016-10-13T07:56:18.838Z,0
2016-10-13T07:57:18.909Z,0
2016-10-13T07:58:18.941Z,0
2016-10-13T07:59:19.119Z,0
2016-10-13T08:00:19.063Z,0
2016-10-13T08:01:19.122Z,0
2016-10-13T08:02:19.173Z,0
2016-10-13T08:03:19.196Z,0
2016-10-13T08:04:19.359Z,0
2016-10-13T08:05:19.326Z,0
2016-10-13T08:06:19.378Z,0
2016-10-13T08:07:19.420Z,0
2016-10-13T08:08:19.462Z,0
2016-10-13T08:09:20.204Z,0
2016-10-13T08:10:19.571Z,0
2016-10-13T08:11:19.652Z,0
2016-10-13T08:12:19.663Z,0
2016-10-13T08:13:19.707Z,0
2016-10-13T08:14:19.886Z,0
2016-10-13T08:15:19.822Z,0
2016-10-13T08:16:19.932Z,0
2016-10-13T08:17:19.929Z,0
2016-10-13T08:18:20.041Z,0
2016-10-13T08:19:20.034Z,0
2016-10-13T08:20:20.095Z,0
2016-10-13T08:21:20.132Z,0
2016-10-13T08:22:20.171Z,0
2016-10-13T08:23:20.236Z,4
2016-10-13T08:24:20.335Z,4
2016-10-13T08:25:20.354Z,0
2016-10-13T08:26:20.415Z,4
2016-10-13T08:27:20.459Z,4
2016-10-13T08:28:20.505Z,8
2016-10-13T08:29:20.557Z,4
2016-10-13T08:30:20.732Z,4
2016-10-13T08:31:20.674Z,8
2016-10-13T08:32:20.728Z,8
2016-10-13T08:33:20.790Z,12
2016-10-13T08:34:20.811Z,8
2016-10-13T08:35:21.012Z,12
2016-10-13T08:36:20.952Z,12
2016-10-13T08:37:20.960Z,12
2016-10-13T08:38:21.095Z,16
2016-10-13T08:39:21.103Z,20
2016-10-13T08:40:21.277Z,20
2016-10-13T08:41:21.239Z,24
2016-10-13T08:42:21.208Z,28
2016-10-13T08:43:21.322Z,28
2016-10-13T08:44:21.362Z,32
2016-10-13T08:45:21.468Z,32
2016-10-13T08:46:21.478Z,32
2016-10-13T08:47:21.485Z,40
2016-10-13T08:48:21.549Z,40
2016-10-13T08:49:21.623Z,48
2016-10-13T08:50:22.301Z,52
2016-10-13T08:51:21.756Z,52
2016-10-13T08:52:21.791Z,56
2016-10-13T08:53:21.837Z,56
2016-10-13T08:54:21.889Z,60
2016-10-13T08:55:21.940Z,64
2016-10-13T08:56:21.981Z,68
2016-10-13T08:57:23.081Z,72
2016-10-13T08:58:22.091Z,80
2016-10-13T08:59:22.154Z,88
2016-10-13T09:00:22.215Z,96
2016-10-13T09:01:22.351Z,104
2016-10-13T09:02:22.311Z,108
2016-10-13T09:03:22.366Z,116
2016-10-13T09:04:22.435Z,128
2016-10-13T09:05:22.468Z,140
2016-10-13T09:06:22.637Z,152
2016-10-13T09:07:22.578Z,168
2016-10-13T09:08:22.627Z,176
2016-10-13T09:09:22.695Z,180
2016-10-13T09:10:22.701Z,176
2016-10-13T09:11:22.901Z,168
2016-10-13T09:12:23.385Z,156
2016-10-13T09:13:22.916Z,148
2016-10-13T09:14:22.905Z,140
2016-10-13T09:15:22.972Z,136
2016-10-13T09:16:23.163Z,128
2016-10-13T09:17:23.093Z,124
2016-10-13T09:18:23.179Z,124
2016-10-13T09:19:23.202Z,124
2016-10-13T09:20:23.799Z,124
2016-10-13T09:21:23.411Z,124
2016-10-13T09:22:23.337Z,132
2016-10-13T09:23:23.435Z,140
2016-10-13T09:24:23.475Z,144
2016-10-13T09:25:23.551Z,152
2016-10-13T09:26:24.167Z,160
2016-10-13T09:27:23.633Z,168
2016-10-13T09:28:23.681Z,180
2016-10-13T09:29:23.731Z,188
2016-10-13T09:30:23.757Z,200
2016-10-13T09:31:23.916Z,216
2016-10-13T09:32:24.426Z,240
2016-10-13T09:33:24.436Z,268
2016-10-13T09:34:24.001Z,296
2016-10-13T09:35:24.557Z,324
2016-10-13T09:36:24.198Z,356
2016-10-13T09:37:24.096Z,384
2016-10-13T09:38:24.203Z,424
2016-10-13T09:39:24.242Z,456
2016-10-13T09:40:24.360Z,488
2016-10-13T09:41:24.387Z,508
2016-10-13T09:42:24.425Z,536
2016-10-13T09:43:24.525Z,560
2016-10-13T09:44:24.564Z,596
2016-10-13T09:45:24.586Z,640
2016-10-13T09:46:24.654Z,692
2016-10-13T09:47:24.696Z,748
2016-10-13T09:48:24.731Z,800
2016-10-13T09:49:24.810Z,852
2016-10-13T09:50:25.386Z,896
2016-10-13T09:51:25.456Z,948
2016-10-13T09:52:24.935Z,996
2016-10-13T09:53:25.539Z,1040
2016-10-13T09:54:25.058Z,1080
2016-10-13T09:55:25.090Z,1132
2016-10-13T09:56:25.653Z,1180
2016-10-13T09:57:25.325Z,1220
2016-10-13T09:58:25.252Z,1204
2016-10-13T09:59:25.864Z,1140
2016-10-13T10:00:25.349Z,1056
2016-10-13T10:01:25.429Z,1020
2016-10-13T10:02:25.593Z,1020
2016-10-13T10:03:25.515Z,1048
2016-10-13T10:04:25.563Z,1084
2016-10-13T10:05:25.632Z,1128
2016-10-13T10:06:25.678Z,1184
2016-10-13T10:07:26.329Z,1224
2016-10-13T10:08:25.751Z,1252
2016-10-13T10:09:25.838Z,1300
2016-10-13T10:10:25.852Z,1344
2016-10-13T10:11:25.929Z,1380
2016-10-13T10:12:26.092Z,1448
2016-10-13T10:13:26.013Z,1536
2016-10-13T10:14:26.140Z,1588
2016-10-13T10:15:26.179Z,1632
2016-10-13T10:16:26.263Z,1652
2016-10-13T10:17:26.381Z,1684
2016-10-13T10:18:26.297Z,1716
2016-10-13T10:19:26.344Z,1780
2016-10-13T10:20:26.425Z,1848
2016-10-13T10:21:26.486Z,1960
2016-10-13T10:22:26.518Z,2080
2016-10-13T10:23:26.642Z,2240
2016-10-13T10:24:26.604Z,2340
2016-10-13T10:25:26.702Z,2400
2016-10-13T10:26:26.776Z,2416
2016-10-13T10:27:27.355Z,2508
2016-10-13T10:28:26.872Z,2624
2016-10-13T10:29:26.911Z,2764
2016-10-13T10:30:26.932Z,2928
2016-10-13T10:31:26.979Z,3072
2016-10-13T10:32:27.037Z,3244
2016-10-13T10:33:27.169Z,3256
2016-10-13T10:34:27.153Z,3696
2016-10-13T10:35:27.188Z,3676
2016-10-13T10:36:27.319Z,3860
2016-10-13T10:37:28.343Z,4424
2016-10-13T10:38:27.481Z,5140
2016-10-13T10:39:27.985Z,6380
2016-10-13T10:40:27.468Z,6060
2016-10-13T10:41:27.538Z,5552
2016-10-13T10:42:27.595Z,5644
2016-10-13T10:43:27.739Z,5776
2016-10-13T10:44:27.686Z,5424
2016-10-13T10:45:28.278Z,5404
2016-10-13T10:46:27.777Z,5480
2016-10-13T10:47:27.848Z,5432
2016-10-13T10:48:27.997Z,5208
2016-10-13T10:49:27.981Z,5040
2016-10-13T10:50:28.011Z,4864
2016-10-13T10:51:28.067Z,4464
2016-10-13T10:52:28.149Z,3896
2016-10-13T10:53:28.265Z,3380
2016-10-13T10:54:28.194Z,3012
2016-10-13T10:55:28.288Z,2732
2016-10-13T10:56:28.399Z,2464
2016-10-13T10:57:28.902Z,2244
2016-10-13T10:58:28.490Z,2096
2016-10-13T10:59:28.516Z,2084
2016-10-13T11:00:28.554Z,2060
2016-10-13T11:01:28.601Z,1944
2016-10-13T11:02:28.655Z,1896
2016-10-13T11:03:28.726Z,1904
2016-10-13T11:04:28.713Z,1880
2016-10-13T11:05:28.835Z,1876
2016-10-13T11:06:28.852Z,1944
2016-10-13T11:07:28.875Z,2032
2016-10-13T11:08:28.953Z,2056
2016-10-13T11:09:29.106Z,2096
2016-10-13T11:10:29.115Z,2144
2016-10-13T11:11:29.132Z,2136
2016-10-13T11:12:29.176Z,2112
2016-10-13T11:13:29.211Z,2108
2016-10-13T11:14:29.409Z,2112
2016-10-13T11:15:29.893Z,2076
2016-10-13T11:16:29.399Z,2024
2016-10-13T11:17:29.408Z,1928
2016-10-13T11:18:29.504Z,1872
2016-10-13T11:19:29.668Z,1828
2016-10-13T11:20:29.643Z,1796
2016-10-13T11:21:30.214Z,1748
2016-10-13T11:22:29.730Z,1676
2016-10-13T11:23:29.768Z,1612
2016-10-13T11:24:30.438Z,1560
2016-10-13T11:25:29.870Z,1500
2016-10-13T11:26:29.898Z,1452
2016-10-13T11:27:30.506Z,1388
2016-10-13T11:28:30.024Z,1336
2016-10-13T11:29:30.710Z,1324
2016-10-13T11:30:30.140Z,1340
2016-10-13T11:31:30.194Z,1352
2016-10-13T11:32:30.271Z,1380
2016-10-13T11:33:30.803Z,1404
2016-10-13T11:34:30.342Z,1420
2016-10-13T11:35:30.419Z,1456
2016-10-13T11:36:30.515Z,1484
2016-10-13T11:37:31.095Z,1512
2016-10-13T11:38:30.573Z,1544
2016-10-13T11:39:30.585Z,1572
2016-10-13T11:40:30.794Z,1624
2016-10-13T11:41:30.703Z,1688
2016-10-13T11:42:30.761Z,1748
2016-10-13T11:43:31.383Z,1820
2016-10-13T11:44:30.905Z,1912
2016-10-13T11:45:34.862Z,2032
2016-10-13T11:46:31.550Z,2124
2016-10-13T11:47:31.042Z,2200
2016-10-13T11:48:31.066Z,2236
2016-10-13T11:49:31.174Z,2260
2016-10-13T11:50:31.288Z,2332
2016-10-13T11:51:31.235Z,2412
2016-10-13T11:52:31.335Z,2504
2016-10-13T11:53:31.368Z,2616
2016-10-13T11:54:31.446Z,2724
2016-10-13T11:55:32.075Z,2884
2016-10-13T11:56:31.522Z,3020
2016-10-13T11:57:31.784Z,3112
2016-10-13T11:58:31.618Z,3192
2016-10-13T11:59:31.692Z,3336
2016-10-13T12:00:31.798Z,3480
2016-10-13T12:01:31.830Z,3652
2016-10-13T12:02:32.602Z,3796
2016-10-13T12:03:31.932Z,3988
2016-10-13T12:04:32.534Z,4116
2016-10-13T12:05:32.639Z,4316
2016-10-13T12:06:32.594Z,4724
2016-10-13T12:07:32.098Z,5344
2016-10-13T12:08:32.160Z,5676
2016-10-13T12:09:32.774Z,6340
2016-10-13T12:10:32.276Z,6276
2016-10-13T12:11:32.353Z,6456
2016-10-13T12:12:32.362Z,6604
2016-10-13T12:13:32.412Z,6680
2016-10-13T12:14:32.474Z,6620
2016-10-13T12:15:33.086Z,6512
2016-10-13T12:16:33.108Z,6452
2016-10-13T12:17:33.252Z,6396
2016-10-13T12:18:32.682Z,6288
2016-10-13T12:19:33.348Z,6212
2016-10-13T12:20:32.826Z,6132
2016-10-13T12:21:32.963Z,6036
2016-10-13T12:22:32.903Z,5936
2016-10-13T12:23:32.968Z,5872
2016-10-13T12:24:33.010Z,5856
2016-10-13T12:25:33.103Z,5832
2016-10-13T12:26:33.739Z,5916
2016-10-13T12:27:33.204Z,6252
2016-10-13T12:28:33.279Z,6112
2016-10-13T12:29:33.300Z,6204
2016-10-13T12:30:33.380Z,6372
2016-10-13T12:31:33.499Z,6576
2016-10-13T12:32:33.493Z,6576
2016-10-13T12:33:33.571Z,6684
2016-10-13T12:34:33.572Z,6788
2016-10-13T12:35:33.604Z,6920
2016-10-13T12:36:33.774Z,7144
2016-10-13T12:37:33.722Z,7312
2016-10-13T12:38:33.775Z,7496
2016-10-13T12:39:34.390Z,7428
2016-10-13T12:40:33.898Z,7384
2016-10-13T12:41:34.033Z,7468
2016-10-13T12:42:34.486Z,6712
2016-10-13T12:43:34.086Z,6496
2016-10-13T12:44:34.105Z,6892
2016-10-13T12:45:34.195Z,7096
2016-10-13T12:46:34.338Z,7032
2016-10-13T12:47:34.282Z,8036
2016-10-13T12:48:34.353Z,8192
2016-10-13T12:49:34.369Z,8288
2016-10-13T12:50:34.456Z,8264
2016-10-13T12:51:34.603Z,8024
2016-10-13T12:52:35.096Z,8108
2016-10-13T12:53:35.137Z,7300
2016-10-13T12:54:34.709Z,6396
2016-10-13T12:55:34.743Z,6924
2016-10-13T12:56:34.828Z,6840
2016-10-13T12:57:34.781Z,6552
2016-10-13T12:58:34.846Z,7856
2016-10-13T12:59:35.489Z,7440
2016-10-13T13:00:35.501Z,7348
2016-10-13T13:01:35.037Z,7324
2016-10-13T13:02:35.648Z,7372
2016-10-13T13:03:35.146Z,7652
2016-10-13T13:04:35.255Z,7152
2016-10-13T13:05:35.277Z,7536
2016-10-13T13:06:35.371Z,7808
2016-10-13T13:07:35.363Z,7640
2016-10-13T13:08:35.464Z,7368
2016-10-13T13:09:35.516Z,7668
2016-10-13T13:10:35.566Z,7744
2016-10-13T13:11:35.595Z,7684
2016-10-13T13:12:35.760Z,7696
2016-10-13T13:13:35.941Z,7704
2016-10-13T13:14:35.777Z,7688
2016-10-13T13:15:35.812Z,7792
2016-10-13T13:16:35.890Z,7196
2016-10-13T13:17:36.002Z,7932
2016-10-13T13:18:35.990Z,6168
2016-10-13T13:19:36.082Z,6944
2016-10-13T13:20:36.118Z,5980
2016-10-13T13:21:36.712Z,5672
2016-10-13T13:22:36.311Z,5716
2016-10-13T13:23:36.263Z,7152
2016-10-13T13:24:36.338Z,6700
2016-10-13T13:25:36.383Z,6176
2016-10-13T13:26:36.424Z,6340
2016-10-13T13:27:36.589Z,7036
2016-10-13T13:28:36.586Z,8540
2016-10-13T13:29:37.321Z,8460
2016-10-13T13:30:37.248Z,8888
2016-10-13T13:31:37.240Z,8196
2016-10-13T13:32:36.867Z,7560
2016-10-13T13:33:36.879Z,7736
2016-10-13T13:34:36.931Z,7716
2016-10-13T13:35:36.947Z,6672
2016-10-13T13:36:36.993Z,6416
2016-10-13T13:37:37.149Z,6576
2016-10-13T13:38:37.173Z,6412
2016-10-13T13:39:37.666Z,6588
2016-10-13T13:40:37.228Z,6684
2016-10-13T13:41:37.279Z,6736
2016-10-13T13:42:37.992Z,7368
2016-10-13T13:43:37.937Z,7244
2016-10-13T13:44:37.952Z,7644
2016-10-13T13:45:37.514Z,7644
2016-10-13T13:46:37.564Z,7436
2016-10-13T13:47:37.726Z,7400
2016-10-13T13:48:38.159Z,7124
2016-10-13T13:49:38.255Z,6852
2016-10-13T13:50:37.796Z,6592
2016-10-13T13:51:37.854Z,6380
2016-10-13T13:52:38.037Z,6324
2016-10-13T13:53:37.952Z,6304
2016-10-13T13:54:38.585Z,6332
2016-10-13T13:55:38.603Z,6208
2016-10-13T13:56:38.168Z,6068
2016-10-13T13:57:38.207Z,5556
2016-10-13T13:58:38.263Z,5576
2016-10-13T13:59:38.297Z,5472
2016-10-13T14:00:38.878Z,5344
2016-10-13T14:01:38.439Z,5092
2016-10-13T14:02:38.493Z,4704
2016-10-13T14:03:38.623Z,4928
2016-10-13T14:04:39.112Z,5272
2016-10-13T14:05:38.671Z,5384
2016-10-13T14:06:39.193Z,5584
2016-10-13T14:07:38.792Z,5340
2016-10-13T14:08:39.414Z,5476
2016-10-13T14:09:39.376Z,5296
2016-10-13T14:10:39.497Z,5712
2016-10-13T14:11:39.008Z,5544
2016-10-13T14:12:39.045Z,5532
2016-10-13T14:13:39.272Z,5528
2016-10-13T14:14:39.730Z,5516